Time;durP1;ratioP1;P1;durP2;ratioP2;P2;SDS_P1;SDS_P2;PMS_P1;PMS_P2;Temp;Humidity;BMP_temperature;BMP_pressure;BME280_temperature;BME280_humidity;BME280_pressure;Samples;Min_cycle;Max_cycle;Signal;HPM_P1;HPM_P2
2022/03/03 00:00:37;;;;;;;7.85;5.10;;;;;;;0.47;80.04;101754.31;5052277;28;20084;-72
2022/03/03 00:03:04;;;;;;;13.65;5.40;;;;;;;0.47;80.26;101756.91;5055199;28;20049;-74
2022/03/03 00:05:31;;;;;;;7.47;4.85;;;;;;;0.50;80.19;101748.22;5053683;28;20046;-73
2022/03/03 00:07:57;;;;;;;5.30;3.90;;;;;;;0.49;80.23;101749.16;5054121;28;20052;-72
2022/03/03 00:10:25;;;;;;;7.05;4.03;;;;;;;0.47;80.08;101746.56;5052066;28;20472;-71
2022/03/03 00:12:52;;;;;;;6.35;2.92;;;;;;;0.42;79.49;101739.81;5053376;28;20094;-72
2022/03/03 00:15:18;;;;;;;10.43;5.00;;;;;;;0.40;80.29;101745.00;5049625;28;20071;-73
2022/03/03 00:17:45;;;;;;;5.93;4.43;;;;;;;0.37;80.00;101747.66;5054525;28;20060;-72
2022/03/03 00:20:12;;;;;;;5.45;4.13;;;;;;;0.35;80.56;101751.16;5051128;28;20051;-74
2022/03/03 00:22:39;;;;;;;7.07;4.47;;;;;;;0.36;80.45;101748.56;5051260;28;20141;-73
2022/03/03 00:25:06;;;;;;;6.75;4.03;;;;;;;0.37;80.10;101750.25;5047615;28;20059;-74
2022/03/03 00:27:34;;;;;;;7.38;5.00;;;;;;;0.34;79.59;101742.56;5049124;28;20102;-73
2022/03/03 00:30:01;;;;;;;7.63;3.33;;;;;;;0.29;80.38;101740.97;5050942;28;20064;-74
2022/03/03 00:35:09;;;;;;;9.18;5.35;;;;;;;0.28;79.62;101750.47;5064579;27;20409;-73
2022/03/03 00:37:35;;;;;;;3.85;3.25;;;;;;;0.24;79.65;101745.41;5066004;28;20043;-72
2022/03/03 00:40:03;;;;;;;6.95;4.75;;;;;;;0.24;80.46;101748.81;5072304;28;20052;-72
2022/03/03 00:42:29;;;;;;;8.30;5.38;;;;;;;0.29;79.66;101738.38;5068150;28;20063;-73
2022/03/03 00:44:56;;;;;;;9.48;4.35;;;;;;;0.24;80.21;101746.22;5070859;28;20044;-73
2022/03/03 00:47:23;;;;;;;7.22;4.78;;;;;;;0.20;79.65;101736.00;5069631;28;20055;-73
2022/03/03 00:49:49;;;;;;;13.80;6.35;;;;;;;0.20;79.72;101736.00;5072918;28;20075;-74
2022/03/03 00:52:17;;;;;;;8.13;3.80;;;;;;;0.22;79.69;101736.81;5073730;28;20043;-73
2022/03/03 00:54:45;;;;;;;8.35;4.47;;;;;;;0.22;78.57;101736.81;5071518;28;20029;-72
2022/03/03 00:57:12;;;;;;;4.40;2.47;;;;;;;0.22;77.00;101740.25;5075249;28;20127;-73
2022/03/03 00:59:39;;;;;;;8.20;4.28;;;;;;;0.26;76.88;101738.44;5067179;28;20224;-73
2022/03/03 01:02:06;;;;;;;7.97;4.68;;;;;;;0.25;76.28;101735.03;5075079;28;20040;-72
2022/03/03 01:04:35;;;;;;;10.30;4.38;;;;;;;0.23;76.42;101731.63;5074520;28;20052;-74
2022/03/03 01:07:02;;;;;;;9.90;3.65;;;;;;;0.17;76.74;101736.91;5076361;28;20067;-74
2022/03/03 01:09:30;;;;;;;10.13;4.10;;;;;;;0.17;75.77;101736.91;5074994;28;20043;-74
2022/03/03 01:11:56;;;;;;;7.75;4.05;;;;;;;0.18;75.87;101730.88;5078170;28;20072;-73
2022/03/03 01:14:23;;;;;;;4.07;3.47;;;;;;;0.21;75.54;101727.38;5083356;28;20068;-71
2022/03/03 01:16:50;;;;;;;7.88;4.50;;;;;;;0.24;75.62;101733.31;5076963;28;20040;-73
2022/03/03 01:19:17;;;;;;;5.05;3.72;;;;;;;0.26;75.14;101723.81;5074516;28;20031;-73
2022/03/03 01:21:44;;;;;;;22.70;4.82;;;;;;;0.32;75.49;101722.81;5071387;28;20136;-74
2022/03/03 01:24:10;;;;;;;10.68;4.68;;;;;;;0.29;76.02;101710.78;5071747;28;20043;-72
2022/03/03 01:26:38;;;;;;;6.43;4.32;;;;;;;0.17;76.05;101711.09;5072019;28;20033;-73
2022/03/03 01:31:56;;;;;;;5.78;3.85;;;;;;;0.00;77.45;101710.59;5090824;27;20805;-72
2022/03/03 01:34:27;;;;;;;7.88;4.10;;;;;;;0.24;74.81;101704.91;5091459;28;20047;-73
2022/03/03 01:36:54;;;;;;;9.02;4.55;;;;;;;0.11;75.90;101708.66;5094264;28;20494;-73
2022/03/03 01:39:21;;;;;;;7.82;2.95;;;;;;;0.20;76.09;101711.03;5094107;28;20067;-74
2022/03/03 01:45:02;;;;;;;8.93;4.40;;;;;;;0.08;75.63;101700.94;5088338;27;20395;-72
2022/03/03 01:47:29;;;;;;;6.85;4.25;;;;;;;0.06;75.68;101704.44;5053243;28;20102;-74
2022/03/03 01:49:58;;;;;;;4.07;3.28;;;;;;;0.00;75.80;101697.69;5066340;28;20042;-72
2022/03/03 01:52:24;;;;;;;7.63;4.50;;;;;;;0.07;76.79;101707.00;5068756;28;20040;-72
2022/03/03 01:54:52;;;;;;;3.20;2.88;;;;;;;0.02;76.71;101706.25;5082180;28;20075;-73
2022/03/03 01:57:21;;;;;;;7.80;3.67;;;;;;;-0.06;77.95;101696.94;5071815;28;20067;-72
2022/03/03 01:59:48;;;;;;;9.93;3.80;;;;;;;-0.05;78.08;101698.66;5082736;28;20072;-72
2022/03/03 02:02:16;;;;;;;3.67;2.20;;;;;;;-0.12;77.82;101696.25;5070597;28;20043;-71
2022/03/03 02:04:44;;;;;;;11.30;3.92;;;;;;;-0.13;77.74;101695.38;5069781;28;20071;-71
2022/03/03 02:07:11;;;;;;;3.50;3.10;;;;;;;-0.23;78.20;101693.88;5114820;27;20044;-73
2022/03/03 02:09:40;;;;;;;4.68;3.28;;;;;;;-0.24;77.96;101697.31;5085554;28;20064;-72
2022/03/03 02:12:09;;;;;;;7.18;3.63;;;;;;;-0.27;77.92;101693.97;5075842;28;20036;-72
2022/03/03 02:14:42;;;;;;;5.60;3.45;;;;;;;-0.28;77.70;101689.66;5071009;28;20085;-74
2022/03/03 02:17:09;;;;;;;3.35;3.05;;;;;;;-0.32;78.14;101688.03;5070152;28;20036;-73
2022/03/03 02:19:37;;;;;;;4.25;2.92;;;;;;;-0.34;77.89;101682.06;5064270;28;20127;-72
2022/03/03 02:22:06;;;;;;;12.88;3.28;;;;;;;-0.47;78.28;101688.34;5077611;28;20823;-73
2022/03/03 02:24:33;;;;;;;5.20;3.17;;;;;;;-0.52;79.34;101682.41;5070008;28;20135;-73
2022/03/03 02:27:01;;;;;;;3.85;2.88;;;;;;;-0.54;79.54;101685.03;5069569;28;20072;-72
2022/03/03 02:29:28;;;;;;;3.47;2.88;;;;;;;-0.48;78.50;101682.31;5070651;28;20059;-72
2022/03/03 02:31:54;;;;;;;6.10;3.17;;;;;;;-0.43;78.42;101682.25;5063509;28;20039;-72
2022/03/03 02:34:21;;;;;;;8.65;4.13;;;;;;;-0.43;78.26;101677.06;5069132;28;20079;-73
2022/03/03 02:36:48;;;;;;;10.50;3.97;;;;;;;-0.35;78.56;101672.59;5067978;28;20042;-73
2022/03/03 02:39:16;;;;;;;6.18;3.58;;;;;;;-0.37;78.73;101672.66;5070394;28;20032;-74
2022/03/03 02:41:43;;;;;;;6.25;3.53;;;;;;;-0.43;78.97;101659.00;5053228;28;20084;-72
2022/03/03 02:44:10;;;;;;;4.10;3.25;;;;;;;-0.52;79.36;101660.06;5067402;28;20067;-70
2022/03/03 02:46:37;;;;;;;6.65;3.50;;;;;;;-0.47;78.83;101672.88;5062922;28;20079;-72
2022/03/03 02:49:05;;;;;;;4.90;3.25;;;;;;;-0.54;79.10;101669.56;5063432;28;20131;-72
2022/03/03 02:51:31;;;;;;;12.35;4.55;;;;;;;-0.59;78.75;101665.34;5067319;28;20052;-71
2022/03/03 02:53:58;;;;;;;5.85;4.20;;;;;;;-0.57;79.31;101663.59;5061798;28;20043;-72
2022/03/03 02:56:26;;;;;;;4.40;2.83;;;;;;;-0.58;79.27;101664.47;5057013;28;20033;-71
2022/03/03 02:58:55;;;;;;;5.55;3.13;;;;;;;-0.70;78.86;101669.91;5072017;28;20691;-71
2022/03/03 03:01:21;;;;;;;4.47;3.00;;;;;;;-0.72;79.42;101661.31;5053286;28;20072;-72
2022/03/03 03:03:48;;;;;;;3.95;3.55;;;;;;;-0.75;79.79;101662.25;5069653;28;20115;-71
2022/03/03 03:06:15;;;;;;;4.70;2.78;;;;;;;-0.77;79.80;101653.69;5055001;28;20047;-73
2022/03/03 03:08:42;;;;;;;6.80;3.95;;;;;;;-0.79;80.05;101655.44;5031585;28;20063;-71
2022/03/03 03:11:09;;;;;;;6.10;2.40;;;;;;;-0.77;80.34;101663.13;5059344;28;20127;-70
2022/03/03 03:13:37;;;;;;;3.65;2.78;;;;;;;-0.80;80.46;101652.88;5056965;28;20051;-73
2022/03/03 03:18:50;;;;;;;5.57;3.78;;;;;;;-0.79;80.07;101652.00;5085410;27;20391;-73
2022/03/03 03:21:17;;;;;;;8.98;4.65;;;;;;;-0.87;80.22;101646.16;5065196;28;20120;-73
2022/03/03 03:23:43;;;;;;;8.77;3.15;;;;;;;-0.86;80.13;101652.97;5096743;28;20052;-71
2022/03/03 03:26:10;;;;;;;10.23;3.47;;;;;;;-0.93;80.48;101650.56;5102857;28;20071;-70
2022/03/03 03:28:37;;;;;;;6.68;4.47;;;;;;;-0.83;79.85;101647.78;5099058;28;20036;-72
2022/03/03 03:31:03;;;;;;;6.13;4.07;;;;;;;-0.90;80.05;101655.66;5095213;28;20193;-74
2022/03/03 03:33:30;;;;;;;2.65;2.08;;;;;;;-0.77;80.07;101647.66;5094568;28;20047;-73
2022/03/03 03:35:59;;;;;;;5.25;3.72;;;;;;;-0.82;79.78;101648.63;5088858;28;20050;-73
2022/03/03 03:38:25;;;;;;;3.45;2.55;;;;;;;-0.96;79.23;101640.28;5077310;28;20079;-74
2022/03/03 03:40:52;;;;;;;6.95;3.67;;;;;;;-1.06;80.08;101643.91;5089976;28;20071;-72
2022/03/03 03:43:19;;;;;;;2.95;2.40;;;;;;;-1.14;80.60;101646.63;5090216;28;20047;-72
2022/03/03 03:45:46;;;;;;;6.40;3.15;;;;;;;-1.14;80.34;101641.47;5095027;28;20244;-73
2022/03/03 03:48:12;;;;;;;4.32;2.97;;;;;;;-1.12;80.75;101636.28;5093537;28;20073;-72
2022/03/03 03:50:39;;;;;;;4.38;2.92;;;;;;;-1.10;80.28;101632.78;5094276;28;20040;-71
2022/03/03 03:53:07;;;;;;;15.15;3.83;;;;;;;-1.12;80.67;101636.28;5085350;28;20040;-72
2022/03/03 03:55:34;;;;;;;6.05;3.28;;;;;;;-1.16;80.51;101629.50;5088854;28;20029;-71
2022/03/03 03:58:01;;;;;;;8.27;3.20;;;;;;;-1.23;80.24;101630.50;5088836;28;20126;-73
2022/03/03 04:00:27;;;;;;;6.20;4.25;;;;;;;-1.33;80.22;101629.78;5089838;28;20123;-72
2022/03/03 04:02:54;;;;;;;2.53;2.15;;;;;;;-1.30;79.54;101627.16;5092752;28;20051;-73
2022/03/03 04:05:21;;;;;;;5.00;3.80;;;;;;;-1.34;80.72;101622.91;5091714;28;20039;-72
2022/03/03 04:07:47;;;;;;;8.25;4.05;;;;;;;-1.38;79.74;101610.97;5094382;28;20052;-73
2022/03/03 04:10:19;;;;;;;5.93;3.13;;;;;;;-1.39;79.95;101614.44;5097346;28;20093;-71
2022/03/03 04:12:46;;;;;;;3.13;2.45;;;;;;;-1.41;80.01;101621.31;5108219;27;20056;-74
2022/03/03 04:15:13;;;;;;;8.07;5.05;;;;;;;-1.45;80.51;101614.53;5079544;28;20505;-72
2022/03/03 04:17:40;;;;;;;3.60;2.75;;;;;;;-1.45;80.44;101614.53;5090397;28;20048;-72
2022/03/03 04:20:07;;;;;;;2.83;2.53;;;;;;;-1.48;80.74;101613.75;5098072;28;20059;-73
2022/03/03 04:22:34;;;;;;;6.03;3.92;;;;;;;-1.38;80.88;101621.28;5095516;28;20043;-74
2022/03/03 04:25:01;;;;;;;4.30;2.85;;;;;;;-1.43;81.28;101617.91;5094304;28;20790;-72
2022/03/03 04:27:29;;;;;;;8.90;4.53;;;;;;;-1.41;80.38;101615.34;5088885;28;20121;-73
2022/03/03 04:29:56;;;;;;;5.90;4.28;;;;;;;-1.41;80.55;101616.19;5079724;28;20421;-72
2022/03/03 04:32:22;;;;;;;5.85;3.30;;;;;;;-1.44;80.65;101605.06;5080278;28;20051;-72
2022/03/03 04:34:49;;;;;;;5.53;3.28;;;;;;;-1.40;80.94;101607.56;5083688;28;20723;-73
2022/03/03 04:37:15;;;;;;;10.15;3.67;;;;;;;-1.27;79.89;101613.38;5081877;28;20149;-72
2022/03/03 04:39:42;;;;;;;5.28;3.88;;;;;;;-1.31;80.09;101620.31;5081650;28;20043;-72
2022/03/03 04:42:09;;;;;;;4.30;2.70;;;;;;;-1.34;80.33;101614.34;5081255;28;20032;-72
2022/03/03 04:44:37;;;;;;;8.73;4.97;;;;;;;-1.45;81.03;101617.13;5079919;28;20060;-71
2022/03/03 04:47:04;;;;;;;7.47;3.30;;;;;;;-1.48;81.16;101611.16;5089158;28;20043;-72
2022/03/03 04:49:31;;;;;;;4.35;2.70;;;;;;;-1.48;81.66;101612.00;5076916;28;20048;-75
2022/03/03 04:51:57;;;;;;;3.35;2.47;;;;;;;-1.55;81.20;101613.00;5092119;28;20039;-73
2022/03/03 04:54:24;;;;;;;5.93;4.00;;;;;;;-1.62;81.26;101612.25;5069325;28;20055;-72
2022/03/03 04:56:52;;;;;;;4.50;2.53;;;;;;;-1.70;82.10;101616.69;5076038;28;20049;-72
2022/03/03 04:59:19;;;;;;;4.88;3.38;;;;;;;-1.64;82.60;101606.28;5059430;28;20047;-72
2022/03/03 05:01:47;;;;;;;10.73;3.45;;;;;;;-1.65;82.94;101610.59;5076343;28;20036;-72
2022/03/03 05:04:14;;;;;;;4.55;3.58;;;;;;;-1.64;82.50;101606.28;5078835;28;20039;-73
2022/03/03 05:06:40;;;;;;;5.18;3.95;;;;;;;-1.65;82.75;101609.72;5072976;28;20052;-72
2022/03/03 05:09:07;;;;;;;3.97;3.13;;;;;;;-1.72;82.18;101602.97;5073995;28;20044;-72
2022/03/03 05:11:34;;;;;;;5.70;4.15;;;;;;;-1.62;83.55;101604.53;5080140;28;20039;-72
2022/03/03 05:14:00;;;;;;;3.75;3.28;;;;;;;-1.64;83.16;101607.13;5081067;28;20031;-72
2022/03/03 05:16:27;;;;;;;9.02;3.03;;;;;;;-1.52;82.16;101610.34;5075713;28;20123;-75
2022/03/03 05:18:56;;;;;;;4.45;2.83;;;;;;;-1.49;82.95;101602.56;5079109;28;20126;-72
2022/03/03 05:21:23;;;;;;;7.65;3.97;;;;;;;-1.60;83.79;101597.63;5078286;28;20052;-73
2022/03/03 05:23:49;;;;;;;3.63;3.08;;;;;;;-1.57;83.65;101609.56;5076302;28;20059;-71
2022/03/03 05:26:18;;;;;;;4.32;3.35;;;;;;;-1.62;83.76;101613.09;5077992;28;20075;-72
2022/03/03 05:28:44;;;;;;;10.07;4.43;;;;;;;-1.56;84.63;101602.72;5079724;28;20044;-72
2022/03/03 05:31:11;;;;;;;5.93;3.17;;;;;;;-1.50;83.44;101615.50;5074580;28;20039;-72
2022/03/03 05:33:38;;;;;;;22.77;2.50;;;;;;;-1.35;82.75;101600.59;5076871;28;20726;-72
2022/03/03 05:36:09;;;;;;;4.63;2.83;;;;;;;-1.41;82.47;101611.03;5076504;28;20078;-72
2022/03/03 05:38:36;;;;;;;4.18;3.17;;;;;;;-1.51;82.66;101604.31;5083902;28;20040;-72
2022/03/03 05:41:05;;;;;;;4.03;2.90;;;;;;;-1.41;83.53;101610.19;5091100;27;20044;-73
2022/03/03 05:43:33;;;;;;;6.35;2.50;;;;;;;-1.45;83.27;101611.97;5079314;28;20071;-73
2022/03/03 05:46:00;;;;;;;10.25;3.70;;;;;;;-1.52;83.55;101612.91;5075570;28;20151;-72
2022/03/03 05:48:27;;;;;;;3.90;3.05;;;;;;;-1.53;83.49;101618.09;5073364;28;20097;-73
2022/03/03 05:50:55;;;;;;;5.45;3.30;;;;;;;-1.60;83.27;101612.19;5079267;28;20124;-72
2022/03/03 05:53:24;;;;;;;6.28;3.25;;;;;;;-1.67;83.70;101616.63;5086950;27;20385;-73
2022/03/03 05:55:52;;;;;;;3.58;2.70;;;;;;;-1.76;84.22;101620.19;5076719;28;20078;-72
2022/03/03 05:58:21;;;;;;;4.90;3.17;;;;;;;-1.78;84.09;101619.38;5077341;28;20036;-72
2022/03/03 06:00:49;;;;;;;5.72;3.55;;;;;;;-1.85;83.73;101622.91;5075516;28;20051;-71
2022/03/03 06:03:18;;;;;;;3.90;2.67;;;;;;;-1.94;84.26;101611.91;5077432;28;20845;-70
2022/03/03 06:05:49;;;;;;;4.70;4.15;;;;;;;-1.91;84.82;101606.69;5094322;28;20054;-73
2022/03/03 06:08:17;;;;;;;4.97;3.55;;;;;;;-1.98;85.01;101611.09;5076038;28;20044;-72
2022/03/03 06:10:47;;;;;;;2.40;1.98;;;;;;;-1.87;85.87;101613.50;5079986;28;20043;-72
2022/03/03 06:13:22;;;;;;;20.52;3.78;;;;;;;-1.73;85.69;101616.72;5077816;28;20048;-72
2022/03/03 06:15:50;;;;;;;5.97;3.28;;;;;;;-1.83;85.48;101610.88;5074988;28;20052;-72
2022/03/03 06:18:19;;;;;;;3.40;2.50;;;;;;;-1.89;85.61;101610.09;5085236;27;20054;-72
2022/03/03 06:20:46;;;;;;;4.05;3.05;;;;;;;-1.98;85.98;101610.25;5061352;28;20449;-73
2022/03/03 06:23:13;;;;;;;5.57;3.83;;;;;;;-2.01;85.66;101610.31;5066495;28;20055;-73
2022/03/03 06:25:41;;;;;;;5.72;2.80;;;;;;;-1.97;86.01;101611.94;5075716;28;20056;-72
2022/03/03 06:28:09;;;;;;;6.63;2.78;;;;;;;-1.94;86.60;101606.75;5074974;28;20352;-73
2022/03/03 06:30:36;;;;;;;4.47;2.67;;;;;;;-1.95;86.40;101613.63;5074682;28;20047;-73
2022/03/03 06:33:04;;;;;;;4.90;3.30;;;;;;;-1.91;86.40;101607.56;5063601;28;20050;-72
2022/03/03 06:35:35;;;;;;;9.45;4.95;;;;;;;-1.89;86.85;101620.41;5076990;28;20057;-71
2022/03/03 06:38:05;;;;;;;6.18;4.13;;;;;;;-1.79;86.71;101616.81;5073034;28;20036;-71
2022/03/03 06:40:32;;;;;;;5.95;4.25;;;;;;;-1.81;86.51;101616.00;5075248;28;20255;-72
2022/03/03 06:43:00;;;;;;;3.67;2.75;;;;;;;-1.83;87.20;101621.16;5076466;28;20048;-73
2022/03/03 06:45:29;;;;;;;9.55;3.65;;;;;;;-1.89;87.02;101613.56;5073119;28;20048;-73
2022/03/03 06:47:55;;;;;;;5.70;3.80;;;;;;;-1.88;87.04;101602.34;5079377;28;20047;-73
2022/03/03 06:50:22;;;;;;;5.85;4.40;;;;;;;-1.82;87.60;101602.28;5072429;28;20055;-74
2022/03/03 06:52:50;;;;;;;5.40;4.30;;;;;;;-1.88;87.26;101598.94;5056711;28;20405;-74
2022/03/03 06:55:20;;;;;;;6.32;5.25;;;;;;;-1.91;87.78;101605.00;5078277;28;20135;-73
2022/03/03 06:57:47;;;;;;;2.55;1.95;;;;;;;-1.87;87.17;101609.19;5091536;28;20101;-73
2022/03/03 07:00:17;;;;;;;4.10;2.83;;;;;;;-1.93;86.91;101608.47;5076072;28;20089;-72
2022/03/03 07:02:46;;;;;;;14.55;3.60;;;;;;;-1.94;87.49;101605.03;5076334;28;20047;-72
2022/03/03 07:05:13;;;;;;;4.15;3.63;;;;;;;-1.88;87.73;101611.81;5071413;28;20044;-72
2022/03/03 07:07:42;;;;;;;5.18;3.42;;;;;;;-1.85;87.89;101611.78;5074698;28;20117;-70
2022/03/03 07:10:09;;;;;;;10.55;4.45;;;;;;;-1.70;88.44;101602.06;5074752;28;20129;-73
2022/03/03 07:12:35;;;;;;;3.63;3.33;;;;;;;-1.63;87.90;101608.81;5075917;28;20036;-73
2022/03/03 07:15:03;;;;;;;5.40;2.97;;;;;;;-1.47;87.76;101605.13;5071650;28;20040;-72
2022/03/03 07:17:40;;;;;;;7.70;3.80;;;;;;;-1.16;87.71;101601.97;5062653;28;20506;-72
2022/03/03 07:20:13;;;;;;;9.27;3.45;;;;;;;-0.21;85.80;101606.09;5079163;28;20044;-73
2022/03/03 07:22:52;;;;;;;4.85;2.97;;;;;;;0.59;79.26;101600.69;5071749;28;20044;-73
2022/03/03 07:25:19;;;;;;;9.85;4.38;;;;;;;0.75;76.71;101592.53;5082296;28;20039;-72
2022/03/03 07:27:47;;;;;;;5.53;3.42;;;;;;;1.10;75.26;101600.19;5086396;28;20064;-72
2022/03/03 07:30:15;;;;;;;4.18;3.78;;;;;;;1.77;73.33;101596.47;5091032;28;20099;-72
2022/03/03 07:32:48;;;;;;;6.35;4.45;;;;;;;2.85;68.42;101593.81;5075829;28;20043;-72
2022/03/03 07:35:16;;;;;;;5.15;3.20;;;;;;;4.86;62.68;101587.63;5078298;28;20025;-74
2022/03/03 07:37:48;;;;;;;4.80;3.20;;;;;;;6.49;55.58;101579.09;5074448;28;20036;-72
2022/03/03 07:40:15;;;;;;;10.18;3.67;;;;;;;7.76;51.83;101584.56;5081137;28;20040;-73
2022/03/03 07:42:45;;;;;;;16.10;4.15;;;;;;;9.07;46.96;101579.59;5070287;28;20223;-72
2022/03/03 07:45:13;;;;;;;5.50;4.03;;;;;;;9.71;45.22;101580.78;5074453;28;20099;-69
2022/03/03 07:47:41;;;;;;;9.77;6.10;;;;;;;11.06;41.16;101575.34;5085151;28;20049;-72
2022/03/03 07:53:00;;;;;;;14.60;6.43;;;;;;;12.31;38.85;101574.19;5088038;27;20403;-73
2022/03/03 07:55:26;;;;;;;8.25;5.38;;;;;;;13.04;37.21;101577.38;5072140;28;20048;-74
2022/03/03 07:57:58;;;;;;;9.60;5.13;;;;;;;12.55;37.78;101575.88;5072059;28;20060;-75
2022/03/03 08:00:25;;;;;;;10.38;6.20;;;;;;;11.37;38.97;101584.50;5053904;28;20048;-73
2022/03/03 08:02:55;;;;;;;10.82;5.60;;;;;;;10.31;41.23;101588.28;5057308;28;20048;-73
2022/03/03 08:05:23;;;;;;;13.88;6.35;;;;;;;8.91;43.33;101603.22;5051897;28;20056;-73
2022/03/03 08:07:49;;;;;;;12.63;6.40;;;;;;;8.28;46.07;101611.31;5072374;28;20040;-75
2022/03/03 08:10:17;;;;;;;11.82;7.18;;;;;;;8.05;46.44;101609.09;5076158;28;20055;-74
2022/03/03 08:12:44;;;;;;;9.93;5.30;;;;;;;9.04;44.77;101608.59;5070023;28;20036;-74
2022/03/03 08:15:12;;;;;;;13.55;7.57;;;;;;;9.56;43.37;101612.41;5082599;28;20050;-75
2022/03/03 08:17:40;;;;;;;10.02;5.68;;;;;;;10.38;41.72;101604.50;5069964;28;20127;-73
2022/03/03 08:20:09;;;;;;;11.93;6.20;;;;;;;11.42;38.57;101595.56;5068892;28;20044;-72
2022/03/03 08:22:35;;;;;;;17.75;6.35;;;;;;;9.89;40.93;101596.22;5066949;28;20121;-72
2022/03/03 08:25:04;;;;;;;13.13;7.05;;;;;;;10.71;41.63;101597.91;5071425;28;20044;-74
2022/03/03 08:27:32;;;;;;;12.70;5.75;;;;;;;11.28;38.36;101593.00;5070864;28;20039;-73
2022/03/03 08:30:00;;;;;;;20.83;6.80;;;;;;;11.25;39.31;101587.97;5072450;28;20048;-72
2022/03/03 08:32:29;;;;;;;9.43;4.93;;;;;;;11.79;37.67;101592.06;5065602;28;20038;-71
2022/03/03 08:35:05;;;;;;;9.88;5.15;;;;;;;11.52;38.27;101593.16;5068680;28;20133;-73
2022/03/03 08:37:35;;;;;;;15.15;7.15;;;;;;;12.45;36.12;101587.19;5070193;28;20055;-73
2022/03/03 08:40:02;;;;;;;11.90;5.82;;;;;;;13.01;34.92;101590.78;5070895;28;20048;-73
2022/03/03 08:42:34;;;;;;;13.93;6.22;;;;;;;13.92;33.11;101580.91;5072735;28;20048;-71
2022/03/03 08:45:05;;;;;;;13.38;5.55;;;;;;;15.57;30.78;101575.75;5070627;28;20044;-73
2022/03/03 08:47:32;;;;;;;10.75;5.88;;;;;;;14.91;30.67;101576.16;5074269;28;20044;-74
2022/03/03 08:50:00;;;;;;;10.45;5.53;;;;;;;14.40;33.65;101587.56;5071470;28;20048;-72
2022/03/03 08:52:27;;;;;;;15.43;6.00;;;;;;;15.78;31.24;101579.19;5074315;28;20054;-77
2022/03/03 08:54:55;;;;;;;14.52;6.25;;;;;;;16.90;28.64;101567.94;5072218;28;20048;-73
2022/03/03 08:57:22;;;;;;;15.73;6.60;;;;;;;15.06;31.04;101571.38;5070774;28;20036;-74
2022/03/03 08:59:50;;;;;;;12.30;6.53;;;;;;;14.92;30.50;101572.56;5067334;28;20564;-75
2022/03/03 09:02:17;;;;;;;11.00;6.45;;;;;;;14.64;31.29;101575.84;5064639;28;20120;-73
2022/03/03 09:04:45;;;;;;;11.02;5.88;;;;;;;15.60;31.13;101575.50;5068248;28;20040;-73
2022/03/03 09:07:13;;;;;;;12.18;5.90;;;;;;;15.71;28.74;101580.72;5056235;28;20125;-73
2022/03/03 09:09:39;;;;;;;15.63;7.00;;;;;;;14.62;30.60;101569.81;5053629;28;20048;-74
2022/03/03 09:12:06;;;;;;;11.45;6.18;;;;;;;14.45;31.19;101567.72;5057195;28;20067;-74
2022/03/03 09:14:34;;;;;;;15.20;6.25;;;;;;;14.21;31.98;101578.63;5049876;28;20041;-73
2022/03/03 09:17:02;;;;;;;11.43;6.45;;;;;;;14.85;30.89;101571.38;5051897;28;20047;-75
2022/03/03 09:19:28;;;;;;;15.40;6.53;;;;;;;14.91;30.06;101562.94;5055061;28;20312;-74
2022/03/03 09:21:56;;;;;;;7.57;4.82;;;;;;;12.73;32.41;101581.56;5051776;28;20044;-73
2022/03/03 09:24:23;;;;;;;15.27;6.60;;;;;;;13.13;32.44;101584.59;5054723;28;20052;-73
2022/03/03 09:26:50;;;;;;;22.00;6.45;;;;;;;12.60;33.16;101588.72;5053252;28;20060;-73
2022/03/03 09:29:19;;;;;;;17.67;5.97;;;;;;;13.67;33.17;101578.53;5054952;28;20045;-74
2022/03/03 09:31:46;;;;;;;15.35;6.90;;;;;;;12.28;32.94;101580.53;5047895;28;20064;-73
2022/03/03 09:34:14;;;;;;;11.75;4.90;;;;;;;10.91;35.76;101577.22;5053558;28;20041;-74
2022/03/03 09:36:41;;;;;;;9.80;5.20;;;;;;;11.50;37.12;101577.44;5057666;28;20067;-72
2022/03/03 09:39:07;;;;;;;12.07;5.55;;;;;;;12.54;33.26;101573.34;5056720;28;20511;-73
2022/03/03 09:41:34;;;;;;;9.65;5.10;;;;;;;11.86;34.37;101568.78;5059069;28;20048;-74
2022/03/03 09:44:01;;;;;;;14.88;7.13;;;;;;;11.43;35.80;101575.34;5056456;28;20051;-73
2022/03/03 09:46:27;;;;;;;15.50;5.72;;;;;;;11.58;34.92;101567.25;5054546;28;20045;-72
2022/03/03 09:48:55;;;;;;;11.15;5.32;;;;;;;11.02;35.42;101558.09;5054165;28;20032;-75
2022/03/03 09:51:27;;;;;;;10.80;6.07;;;;;;;10.81;36.96;101556.91;5058763;28;20048;-72
2022/03/03 09:53:55;;;;;;;12.43;5.57;;;;;;;10.50;36.60;101558.13;5068608;28;20059;-72
2022/03/03 09:56:23;;;;;;;12.52;6.60;;;;;;;10.36;38.47;101554.72;5056545;28;20064;-73
2022/03/03 09:58:49;;;;;;;14.13;6.82;;;;;;;10.59;38.78;101561.91;5058379;28;20051;-73
2022/03/03 10:01:17;;;;;;;11.30;6.10;;;;;;;10.97;38.25;101552.28;5045528;28;20040;-74
2022/03/03 10:03:47;;;;;;;11.10;6.03;;;;;;;11.29;36.15;101544.72;5069471;28;20048;-73
2022/03/03 10:06:14;;;;;;;11.23;6.20;;;;;;;11.37;37.31;101546.81;5050661;28;20036;-73
2022/03/03 10:08:42;;;;;;;12.27;6.72;;;;;;;11.71;37.15;101551.44;5070312;28;20040;-73
2022/03/03 10:11:09;;;;;;;12.23;6.32;;;;;;;11.61;36.61;101551.25;5065002;28;20028;-73
2022/03/03 10:13:47;;;;;;;15.05;6.82;;;;;;;11.44;36.35;101554.19;5056969;28;20048;-73
2022/03/03 10:16:20;;;;;;;14.10;6.53;;;;;;;11.53;37.68;101545.66;5056670;28;20131;-73
2022/03/03 10:18:51;;;;;;;11.63;6.30;;;;;;;11.68;35.54;101547.25;5056299;28;20126;-73
2022/03/03 10:21:18;;;;;;;15.47;7.87;;;;;;;11.94;35.54;101546.22;5054746;28;20052;-75
2022/03/03 10:23:46;;;;;;;15.10;6.22;;;;;;;11.67;35.02;101550.81;5058648;28;20044;-74
2022/03/03 10:26:13;;;;;;;12.23;6.18;;;;;;;11.65;35.85;101552.72;5057915;28;20044;-74
2022/03/03 10:28:39;;;;;;;14.10;6.90;;;;;;;12.02;33.40;101549.97;5054541;28;20076;-75
2022/03/03 10:31:07;;;;;;;13.23;6.30;;;;;;;12.03;35.58;101548.16;5054019;28;20060;-72
2022/03/03 10:33:35;;;;;;;12.00;6.13;;;;;;;12.31;34.04;101548.69;5055468;28;20067;-73
2022/03/03 10:36:05;;;;;;;14.95;6.03;;;;;;;12.14;33.92;101556.16;5054142;28;20044;-73
2022/03/03 10:38:34;;;;;;;14.30;6.70;;;;;;;11.63;34.23;101549.34;5055658;28;20036;-73
2022/03/03 10:41:02;;;;;;;13.60;6.57;;;;;;;11.89;34.82;101544.88;5039273;28;20070;-72
2022/03/03 10:43:46;;;;;;;12.18;6.13;;;;;;;12.69;34.30;101544.06;5056838;28;20043;-73
2022/03/03 10:46:13;;;;;;;15.10;7.57;;;;;;;12.63;35.48;101539.25;5037626;28;20116;-73
2022/03/03 10:48:41;;;;;;;9.65;5.93;;;;;;;12.22;35.90;101538.84;5056497;28;20051;-73
2022/03/03 10:51:11;;;;;;;12.35;6.05;;;;;;;12.72;33.99;101545.63;5036447;28;20060;-73
2022/03/03 10:53:37;;;;;;;11.98;6.88;;;;;;;12.56;34.04;101553.00;5054610;28;20040;-73
2022/03/03 10:56:06;;;;;;;13.75;5.65;;;;;;;13.04;34.24;101551.00;5056913;28;20118;-76
2022/03/03 10:58:48;;;;;;;16.38;7.15;;;;;;;12.59;33.48;101542.25;5035093;28;20042;-74
2022/03/03 11:01:16;;;;;;;21.30;6.30;;;;;;;12.33;35.74;101530.97;5057914;28;20433;-73
2022/03/03 11:03:49;;;;;;;12.88;6.05;;;;;;;12.71;34.98;101531.63;5037628;28;20106;-73
2022/03/03 11:06:17;;;;;;;10.27;6.05;;;;;;;12.90;34.36;101532.78;5054823;28;20074;-74
2022/03/03 11:08:44;;;;;;;12.38;6.03;;;;;;;13.12;33.04;101535.44;5053877;28;20047;-75
2022/03/03 11:11:11;;;;;;;12.45;6.38;;;;;;;12.73;33.42;101524.41;5053496;28;20047;-73
2022/03/03 11:13:39;;;;;;;12.73;5.70;;;;;;;12.49;32.62;101526.25;5056701;28;20040;-73
2022/03/03 11:16:07;;;;;;;10.82;6.22;;;;;;;12.54;33.29;101520.63;5055002;28;20119;-74
2022/03/03 11:18:34;;;;;;;15.02;7.22;;;;;;;12.72;33.56;101522.75;5052622;28;20068;-73
2022/03/03 11:21:00;;;;;;;13.23;6.40;;;;;;;12.93;33.12;101521.97;5054563;28;20052;-73
2022/03/03 11:23:38;;;;;;;11.23;6.15;;;;;;;13.10;33.06;101516.25;5062332;28;20040;-73
2022/03/03 11:26:05;;;;;;;15.35;5.60;;;;;;;12.78;32.02;101517.00;5037731;28;20048;-72
2022/03/03 11:28:36;;;;;;;11.43;6.00;;;;;;;12.72;33.22;101513.97;5053068;28;20051;-72
2022/03/03 11:31:26;;;;;;;13.73;6.28;;;;;;;13.05;32.60;101510.50;5052443;28;20070;-74
2022/03/03 11:34:20;;;;;;;11.30;5.72;;;;;;;13.06;33.22;101506.03;5038484;28;20456;-71
2022/03/03 11:36:47;;;;;;;16.30;6.25;;;;;;;12.93;31.33;101505.31;5050968;28;20048;-72
2022/03/03 11:39:49;;;;;;;13.93;5.80;;;;;;;13.39;32.70;101509.56;5053401;28;20048;-73
2022/03/03 11:42:22;;;;;;;12.68;6.18;;;;;;;13.64;33.14;101510.13;5045711;28;20060;-72